Time;durP1;ratioP1;P1;durP2;ratioP2;P2;SDS_P1;SDS_P2;PMS_P1;PMS_P2;Temp;Humidity;BMP_temperature;BMP_pressure;BME280_temperature;BME280_humidity;BME280_pressure;Samples;Min_cycle;Max_cycle;Signal;HPM_P1;HPM_P2
2023/10/22 00:01:46;;;;;;;9.93;4.60;;;;;;;10.89;nan;99497.16;5032557;28;20158;-77
2023/10/22 00:04:12;;;;;;;17.88;5.32;;;;;;;10.91;nan;99503.97;5032361;28;20065;-77
2023/10/22 00:06:37;;;;;;;11.75;4.75;;;;;;;10.91;nan;99505.78;5014773;28;20034;-79
2023/10/22 00:09:03;;;;;;;9.32;4.47;;;;;;;10.91;nan;99498.66;5031973;28;20036;-77
2023/10/22 00:11:28;;;;;;;9.32;4.55;;;;;;;10.93;nan;99504.63;5032240;28;20029;-77
2023/10/22 00:13:53;;;;;;;12.80;4.70;;;;;;;10.93;nan;99503.81;5014975;28;20060;-77
2023/10/22 00:16:19;;;;;;;10.35;4.32;;;;;;;10.94;nan;99510.75;5032438;28;20029;-76
2023/10/22 00:18:44;;;;;;;14.52;4.80;;;;;;;10.94;nan;99516.94;5045009;28;20052;-77
2023/10/22 00:21:09;;;;;;;10.70;5.32;;;;;;;10.94;nan;99519.59;5052065;28;20097;-77
2023/10/22 00:23:36;;;;;;;14.90;4.50;;;;;;;10.97;nan;99520.25;5051991;28;20048;-77
2023/10/22 00:26:01;;;;;;;10.55;4.60;;;;;;;10.97;nan;99520.25;5052011;28;20036;-76
2023/10/22 00:28:27;;;;;;;8.32;4.63;;;;;;;10.97;nan;99528.22;5052050;28;20025;-78
2023/10/22 00:30:52;;;;;;;13.35;4.45;;;;;;;10.99;nan;99537.69;5051930;28;20032;-78
2023/10/22 00:33:18;;;;;;;10.82;4.25;;;;;;;10.99;nan;99537.69;5051899;28;20119;-77
2023/10/22 00:35:53;;;;;;;10.80;4.45;;;;;;;11.01;nan;99542.84;5050607;28;20029;-77
2023/10/22 00:38:19;;;;;;;9.23;4.28;;;;;;;11.00;nan;99542.03;5050975;28;20059;-77
2023/10/22 00:40:44;;;;;;;9.85;4.40;;;;;;;11.02;nan;99555.16;5050642;28;20033;-79
2023/10/22 00:43:09;;;;;;;10.65;4.57;;;;;;;11.04;nan;99545.16;5052125;28;20120;-77
2023/10/22 00:45:37;;;;;;;7.93;4.15;;;;;;;11.05;nan;99557.47;5052302;28;20087;-79
2023/10/22 00:48:02;;;;;;;7.28;3.80;;;;;;;11.06;nan;99557.31;5051850;28;20041;-79
2023/10/22 00:50:28;;;;;;;7.35;3.78;;;;;;;11.08;nan;99576.56;5052233;28;20083;-79
2023/10/22 00:52:53;;;;;;;9.88;4.00;;;;;;;11.10;nan;99576.41;5052149;28;20440;-78
2023/10/22 00:55:19;;;;;;;8.07;4.10;;;;;;;11.10;nan;99577.22;5052206;28;20029;-83
2023/10/22 00:57:44;;;;;;;8.13;4.00;;;;;;;11.13;nan;99584.03;5055644;28;20033;-79
2023/10/22 01:00:10;;;;;;;7.28;4.00;;;;;;;11.14;nan;99580.38;5056586;28;20381;-77
2023/10/22 01:02:35;;;;;;;10.00;4.05;;;;;;;11.16;nan;99593.53;5056057;28;20106;-80
2023/10/22 01:05:01;;;;;;;11.50;4.10;;;;;;;11.18;nan;99592.34;5055820;28;20040;-80
2023/10/22 01:07:26;;;;;;;13.35;4.57;;;;;;;11.20;nan;99602.84;5055647;28;20469;-79
2023/10/22 01:09:52;;;;;;;8.75;4.25;;;;;;;11.22;nan;99603.47;5055698;28;20033;-79
2023/10/22 01:12:17;;;;;;;11.38;4.40;;;;;;;11.20;nan;99606.31;5055512;28;20033;-77
2023/10/22 01:14:42;;;;;;;14.18;4.43;;;;;;;11.23;nan;99619.28;5054589;28;20040;-79
2023/10/22 01:17:07;;;;;;;10.88;4.05;;;;;;;11.26;nan;99618.09;5051643;28;20116;-78
2023/10/22 01:19:33;;;;;;;18.15;3.95;;;;;;;11.26;nan;99623.44;5035721;28;20072;-78
2023/10/22 01:21:58;;;;;;;9.25;3.47;;;;;;;11.25;nan;99630.56;5035339;28;20033;-78
2023/10/22 01:24:24;;;;;;;11.73;3.53;;;;;;;11.31;nan;99642.38;5035857;28;20029;-78
2023/10/22 01:26:49;;;;;;;13.48;3.80;;;;;;;11.32;nan;99632.56;5035319;28;20033;-79
2023/10/22 01:29:15;;;;;;;14.23;3.92;;;;;;;11.34;nan;99638.53;5035158;28;20041;-79
2023/10/22 01:31:40;;;;;;;10.70;3.85;;;;;;;11.34;nan;99641.19;5035011;28;20060;-81
2023/10/22 01:34:05;;;;;;;9.30;3.78;;;;;;;11.34;nan;99641.19;5035137;28;20029;-80
2023/10/22 01:36:31;;;;;;;10.13;3.50;;;;;;;11.34;nan;99650.00;5035092;28;20041;-78
2023/10/22 01:38:57;;;;;;;17.90;3.63;;;;;;;11.36;nan;99660.50;5035056;28;20045;-77
2023/10/22 01:41:23;;;;;;;13.45;3.58;;;;;;;11.38;nan;99669.97;5034595;28;20033;-77
2023/10/22 01:43:48;;;;;;;13.85;3.33;;;;;;;11.41;nan;99668.81;5034926;28;20065;-77
2023/10/22 01:46:14;;;;;;;12.30;3.42;;;;;;;11.47;nan;99679.59;5034891;28;20041;-76
2023/10/22 01:48:40;;;;;;;6.82;2.90;;;;;;;11.54;nan;99686.88;5034866;28;20029;-78
2023/10/22 01:51:05;;;;;;;11.13;2.78;;;;;;;11.62;nan;99710.84;5035369;28;20041;-75
2023/10/22 01:53:30;;;;;;;11.73;2.35;;;;;;;11.58;nan;99706.84;5035181;28;20447;-76
2023/10/22 01:55:56;;;;;;;17.65;3.25;;;;;;;11.54;nan;99714.38;5034704;28;20454;-75
2023/10/22 01:58:23;;;;;;;25.40;3.38;;;;;;;11.49;nan;99716.69;5034677;28;20430;-77
2023/10/22 02:00:48;;;;;;;17.15;2.25;;;;;;;11.43;nan;99736.84;5016813;28;20117;-76
2023/10/22 02:03:18;;;;;;;10.05;1.85;;;;;;;11.33;nan;99744.25;5034721;28;20533;-77
2023/10/22 02:05:43;;;;;;;10.07;2.20;;;;;;;11.24;nan;99753.22;5034764;28;20445;-76
2023/10/22 02:08:08;;;;;;;14.48;1.83;;;;;;;11.21;nan;99769.53;5015865;28;20172;-77
2023/10/22 02:10:34;;;;;;;12.68;1.60;;;;;;;11.16;nan;99772.72;5035167;28;20493;-77
2023/10/22 02:13:00;;;;;;;9.23;1.55;;;;;;;11.13;nan;99777.56;5017123;28;20470;-77
2023/10/22 02:15:26;;;;;;;14.63;1.90;;;;;;;11.11;nan;99785.72;5034731;28;20033;-79
2023/10/22 02:17:52;;;;;;;9.70;1.60;;;;;;;11.07;nan;99795.03;5034069;28;20061;-77
2023/10/22 02:20:18;;;;;;;6.90;1.60;;;;;;;11.03;nan;99801.69;5034451;28;20025;-78
2023/10/22 02:22:43;;;;;;;13.05;1.90;;;;;;;10.97;nan;99805.84;5034354;28;20042;-78
2023/10/22 02:25:08;;;;;;;5.47;1.77;;;;;;;10.95;nan;99823.81;5034086;28;20137;-77
2023/10/22 02:27:34;;;;;;;18.27;2.50;;;;;;;10.92;nan;99832.94;5034340;28;20461;-77
2023/10/22 02:29:59;;;;;;;15.00;3.42;;;;;;;10.90;nan;99848.25;5016928;28;20493;-77
2023/10/22 02:32:25;;;;;;;9.82;3.22;;;;;;;10.86;nan;99849.59;5033831;28;20036;-78
2023/10/22 02:34:52;;;;;;;15.18;3.88;;;;;;;10.84;nan;99853.41;5034555;28;20481;-78
2023/10/22 02:37:18;;;;;;;12.60;4.30;;;;;;;10.81;nan;99861.72;5033937;28;20076;-78
2023/10/22 02:39:43;;;;;;;17.77;4.43;;;;;;;10.75;nan;99871.19;5016198;28;20030;-77
2023/10/22 02:42:09;;;;;;;15.32;4.45;;;;;;;10.68;nan;99888.81;5016634;28;20034;-77
2023/10/22 02:44:34;;;;;;;18.00;4.28;;;;;;;10.62;nan;99887.63;5033586;28;20065;-79
2023/10/22 02:47:00;;;;;;;14.65;3.60;;;;;;;10.52;nan;99910.88;5034182;28;20140;-78
2023/10/22 02:49:25;;;;;;;7.47;3.20;;;;;;;10.44;nan;99921.50;5033804;28;20030;-80
2023/10/22 02:51:52;;;;;;;7.50;2.78;;;;;;;10.31;nan;99938.69;5034398;28;20046;-81
2023/10/22 02:54:17;;;;;;;7.25;2.40;;;;;;;10.21;nan;99927.31;5033606;28;20034;-80
2023/10/22 02:56:43;;;;;;;10.60;2.58;;;;;;;10.15;nan;99933.28;5033960;28;20135;-79
2023/10/22 02:59:08;;;;;;;11.50;2.58;;;;;;;10.10;nan;99935.59;5015754;28;20120;-77
2023/10/22 03:01:33;;;;;;;5.13;2.35;;;;;;;10.03;nan;99941.53;5033194;28;20120;-78
2023/10/22 03:03:59;;;;;;;8.48;2.22;;;;;;;10.00;nan;99954.28;5033727;28;20037;-77
2023/10/22 03:06:25;;;;;;;7.88;2.17;;;;;;;9.96;nan;99951.13;5033427;28;20021;-77
2023/10/22 03:08:50;;;;;;;20.35;3.00;;;;;;;9.95;nan;99972.53;5033362;28;20033;-78
2023/10/22 03:11:18;;;;;;;5.00;1.45;;;;;;;9.96;nan;99987.50;5033439;28;20121;-79
2023/10/22 03:13:44;;;;;;;9.55;1.60;;;;;;;9.92;nan;99994.13;5034113;28;20073;-78
2023/10/22 03:16:12;;;;;;;6.72;1.80;;;;;;;9.88;nan;100007.72;5033525;28;20072;-78
2023/10/22 03:18:40;;;;;;;11.18;1.90;;;;;;;9.84;nan;100016.97;5035390;28;20123;-81
2023/10/22 03:21:25;;;;;;;5.85;1.83;;;;;;;9.78;nan;100006.97;5014513;28;20037;-80
2023/10/22 03:23:50;;;;;;;10.57;1.70;;;;;;;9.74;nan;100010.91;5018174;28;20176;-81
2023/10/22 03:26:16;;;;;;;8.35;1.67;;;;;;;9.71;nan;100017.34;5033343;28;20151;-81
2023/10/22 03:28:46;;;;;;;6.70;1.40;;;;;;;9.69;nan;100016.69;5033408;28;20044;-80
2023/10/22 03:31:12;;;;;;;2.03;1.15;;;;;;;9.66;nan;100019.66;5032890;28;20045;-80
2023/10/22 03:33:37;;;;;;;9.90;1.77;;;;;;;9.62;nan;100023.59;5032799;28;20101;-82
2023/10/22 03:36:04;;;;;;;3.55;1.30;;;;;;;9.63;nan;100037.69;5015222;28;20113;-81
2023/10/22 03:38:30;;;;;;;7.53;1.40;;;;;;;9.62;nan;100042.19;5033225;28;20045;-82
2023/10/22 03:40:57;;;;;;;11.73;1.90;;;;;;;9.62;nan;100052.81;5032704;28;20124;-83
2023/10/22 03:43:22;;;;;;;4.55;1.60;;;;;;;9.63;nan;100048.31;5033161;28;20029;-84
2023/10/22 03:45:48;;;;;;;8.68;1.95;;;;;;;9.64;nan;100058.81;5032824;28;20115;-83
2023/10/22 03:48:13;;;;;;;3.72;1.63;;;;;;;9.66;nan;100058.69;5032971;28;20065;-82
2023/10/22 03:50:38;;;;;;;6.28;1.42;;;;;;;9.66;nan;100067.47;5015097;28;20431;-83
2023/10/22 03:53:04;;;;;;;10.25;1.67;;;;;;;9.69;nan;100072.47;5032558;28;20444;-82
2023/10/22 03:55:29;;;;;;;6.10;2.08;;;;;;;9.75;nan;100075.50;5032737;28;20331;-81
2023/10/22 03:57:54;;;;;;;9.25;2.00;;;;;;;9.77;nan;100081.50;5032654;28;20061;-79
2023/10/22 04:00:20;;;;;;;9.27;1.83;;;;;;;9.79;nan;100087.50;5032720;28;20033;-79
2023/10/22 04:02:45;;;;;;;3.58;1.65;;;;;;;9.82;nan;100098.66;5014829;28;20041;-80
2023/10/22 04:05:11;;;;;;;12.80;1.92;;;;;;;9.83;nan;100102.97;5032388;28;20034;-79
2023/10/22 04:07:36;;;;;;;2.72;1.35;;;;;;;9.85;nan;100103.69;5032853;28;20497;-83
2023/10/22 04:10:09;;;;;;;6.80;1.73;;;;;;;9.86;nan;100112.47;5032230;28;20112;-80
2023/10/22 04:12:34;;;;;;;6.60;2.72;;;;;;;9.86;nan;100121.28;5032650;28;20029;-80
2023/10/22 04:15:00;;;;;;;10.20;1.70;;;;;;;9.88;nan;100124.63;5032681;28;20056;-80
2023/10/22 04:17:25;;;;;;;4.80;1.40;;;;;;;9.89;nan;100131.59;5032733;28;20065;-78
2023/10/22 04:19:50;;;;;;;16.45;2.40;;;;;;;9.89;nan;100133.41;5014924;28;20041;-82
2023/10/22 04:22:16;;;;;;;3.25;1.17;;;;;;;9.94;nan;100139.13;5032700;28;20029;-83
2023/10/22 04:24:41;;;;;;;9.32;1.65;;;;;;;9.98;nan;100132.50;5032835;28;20386;-80
2023/10/22 04:27:07;;;;;;;7.78;1.20;;;;;;;10.06;nan;100140.56;5032737;28;20055;-81
2023/10/22 04:29:32;;;;;;;7.40;1.30;;;;;;;10.12;nan;100141.78;5032725;28;20556;-81
2023/10/22 04:31:57;;;;;;;3.13;1.20;;;;;;;10.16;nan;100144.97;5032252;28;20033;-82
2023/10/22 04:34:23;;;;;;;10.38;1.45;;;;;;;10.18;nan;100151.81;5032592;28;20029;-81
2023/10/22 04:36:48;;;;;;;3.40;1.25;;;;;;;10.21;nan;100145.31;5032315;28;20465;-82
2023/10/22 04:39:14;;;;;;;2.72;1.25;;;;;;;10.22;nan;100147.00;5015467;28;20428;-85
2023/10/22 04:41:39;;;;;;;3.60;0.82;;;;;;;10.26;nan;100155.53;5032718;28;20080;-83
2023/10/22 04:44:05;;;;;;;7.15;1.40;;;;;;;10.29;nan;100157.88;5032981;28;20116;-82
2023/10/22 04:46:30;;;;;;;4.75;1.17;;;;;;;10.30;nan;100173.66;5032831;28;20061;-81
2023/10/22 04:48:55;;;;;;;16.13;1.60;;;;;;;10.33;nan;100173.38;5033038;28;20033;-83
2023/10/22 04:51:21;;;;;;;4.72;1.30;;;;;;;10.35;nan;100162.59;5032997;28;20025;-84
2023/10/22 04:53:47;;;;;;;10.88;1.27;;;;;;;10.30;nan;100175.47;5033364;28;20083;-84
2023/10/22 04:56:12;;;;;;;6.78;0.98;;;;;;;10.32;nan;100168.19;5032900;28;20033;-83
2023/10/22 04:58:37;;;;;;;4.80;1.10;;;;;;;10.31;nan;100175.31;5015044;28;20481;-83
2023/10/22 05:01:03;;;;;;;3.50;1.08;;;;;;;10.35;nan;100176.72;5032980;28;20428;-81
2023/10/22 05:03:28;;;;;;;14.18;1.35;;;;;;;10.40;nan;100169.13;5032681;28;20041;-83
2023/10/22 05:05:55;;;;;;;5.95;1.35;;;;;;;10.40;nan;100171.78;5032393;28;20486;-84
2023/10/22 05:08:23;;;;;;;1.80;0.70;;;;;;;10.44;nan;100172.31;5032164;28;20462;-84
2023/10/22 05:10:49;;;;;;;7.43;1.25;;;;;;;10.38;nan;100175.59;5031673;28;20458;-83
2023/10/22 05:13:14;;;;;;;3.05;1.10;;;;;;;10.37;nan;100184.53;5032123;28;20025;-85
2023/10/22 05:15:39;;;;;;;5.75;1.35;;;;;;;10.38;nan;100184.38;5032060;28;20458;-84
2023/10/22 05:18:07;;;;;;;5.72;1.00;;;;;;;10.42;nan;100195.56;5032136;28;20080;-84
2023/10/22 05:20:33;;;;;;;2.60;0.90;;;;;;;10.39;nan;100194.03;5031764;28;20040;-84
2023/10/22 05:22:58;;;;;;;4.88;1.05;;;;;;;10.34;nan;100191.00;5032415;28;20036;-84
2023/10/22 05:25:24;;;;;;;5.10;1.00;;;;;;;10.22;nan;100206.31;5031666;28;20029;-85
2023/10/22 05:27:49;;;;;;;4.47;1.13;;;;;;;10.12;nan;100202.91;5031625;28;20055;-84
2023/10/22 05:30:15;;;;;;;12.40;1.23;;;;;;;10.04;nan;100214.28;5031969;28;20033;-85
2023/10/22 05:32:41;;;;;;;4.20;0.93;;;;;;;10.01;nan;100224.41;5031866;28;20056;-84
2023/10/22 05:35:07;;;;;;;4.18;1.27;;;;;;;9.97;nan;100238.97;5031769;28;20381;-84
2023/10/22 05:37:33;;;;;;;7.28;1.00;;;;;;;9.91;nan;100236.91;5032320;28;20505;-85
2023/10/22 05:39:59;;;;;;;8.25;0.93;;;;;;;9.88;nan;100240.69;5014162;28;20099;-83
2023/10/22 05:42:24;;;;;;;4.05;0.80;;;;;;;9.94;nan;100245.44;5031882;28;20041;-84
2023/10/22 05:44:50;;;;;;;2.42;1.05;;;;;;;10.03;nan;100249.00;5035055;28;20030;-84
2023/10/22 05:47:15;;;;;;;3.80;1.33;;;;;;;10.09;nan;100255.53;5035611;28;20037;-83
2023/10/22 05:49:41;;;;;;;7.32;1.25;;;;;;;10.15;nan;100263.75;5035605;28;20034;-85
2023/10/22 05:52:06;;;;;;;9.45;1.20;;;;;;;10.20;nan;100252.66;5035342;28;20034;-85
2023/10/22 05:54:31;;;;;;;2.35;1.00;;;;;;;10.25;nan;100266.34;5035540;28;20044;-85
2023/10/22 05:56:57;;;;;;;6.93;1.00;;;;;;;10.24;nan;100270.00;5035019;28;20029;-83
2023/10/22 05:59:23;;;;;;;5.13;1.05;;;;;;;10.22;nan;100279.94;5035431;28;20029;-85
2023/10/22 06:01:48;;;;;;;10.95;1.25;;;;;;;10.22;nan;100286.06;5035208;28;20033;-83
2023/10/22 06:04:14;;;;;;;5.95;1.20;;;;;;;10.21;nan;100292.41;5035228;28;20041;-84
2023/10/22 06:06:39;;;;;;;1.85;0.88;;;;;;;10.18;nan;100290.03;5034813;28;20073;-84
2023/10/22 06:09:05;;;;;;;5.78;1.02;;;;;;;10.16;nan;100294.66;5035376;28;20037;-85
2023/10/22 06:11:30;;;;;;;1.27;0.80;;;;;;;10.10;nan;100311.22;5034944;28;20474;-85
2023/10/22 06:13:56;;;;;;;1.65;0.98;;;;;;;10.03;nan;100307.47;5035169;28;20041;-85
2023/10/22 06:16:23;;;;;;;3.95;0.95;;;;;;;9.99;nan;100309.59;5035102;28;20079;-85
2023/10/22 06:18:48;;;;;;;2.15;0.90;;;;;;;9.90;nan;100321.13;5043969;28;20056;-85
2023/10/22 06:21:15;;;;;;;3.83;1.45;;;;;;;9.81;nan;100325.50;5054661;28;20033;-85
2023/10/22 06:23:42;;;;;;;4.90;1.30;;;;;;;9.74;nan;100323.56;5053377;28;20337;-85
2023/10/22 06:26:11;;;;;;;2.92;1.00;;;;;;;9.66;nan;100330.44;5055067;28;20041;-84
2023/10/22 06:28:37;;;;;;;4.88;1.23;;;;;;;9.62;nan;100333.53;5054648;28;20033;-84
2023/10/22 06:31:07;;;;;;;5.47;1.00;;;;;;;9.53;nan;100336.06;5054509;28;20067;-83
2023/10/22 06:33:34;;;;;;;3.65;0.90;;;;;;;9.46;nan;100332.31;5054125;28;20040;-84
2023/10/22 06:36:10;;;;;;;3.42;1.00;;;;;;;9.42;nan;100348.66;5054343;28;20037;-84
2023/10/22 06:38:35;;;;;;;3.00;0.85;;;;;;;9.35;nan;100351.06;5053508;28;20160;-83
2023/10/22 06:41:00;;;;;;;3.25;1.48;;;;;;;9.27;nan;100356.25;5052698;28;20471;-83
2023/10/22 06:43:26;;;;;;;7.85;1.25;;;;;;;9.18;nan;100373.84;5054540;28;20037;-82
2023/10/22 06:45:51;;;;;;;9.75;1.10;;;;;;;9.12;nan;100374.44;5054433;28;20037;-83
2023/10/22 06:48:17;;;;;;;3.28;0.93;;;;;;;9.06;nan;100378.50;5054225;28;20025;-83
2023/10/22 06:50:42;;;;;;;3.72;0.93;;;;;;;9.03;nan;100389.38;5053124;28;20384;-83
2023/10/22 06:53:08;;;;;;;4.00;1.10;;;;;;;9.03;nan;100392.03;5054209;28;20146;-83
2023/10/22 06:55:33;;;;;;;3.85;1.20;;;;;;;9.12;nan;100406.28;5052502;28;20033;-83
2023/10/22 06:57:58;;;;;;;2.80;0.98;;;;;;;9.22;nan;100400.97;5053858;28;20025;-83
2023/10/22 07:00:24;;;;;;;2.72;0.85;;;;;;;9.33;nan;100414.09;5053828;28;20040;-83
2023/10/22 07:02:50;;;;;;;3.90;1.02;;;;;;;9.43;nan;100422.88;5036128;28;20116;-83
2023/10/22 07:05:15;;;;;;;2.20;1.00;;;;;;;9.49;nan;100427.66;5052690;28;20516;-83
2023/10/22 07:07:43;;;;;;;5.50;1.15;;;;;;;9.55;nan;100428.06;5053806;28;20033;-83
2023/10/22 07:10:09;;;;;;;4.85;0.98;;;;;;;9.64;nan;100435.16;5052610;28;20025;-83
2023/10/22 07:12:34;;;;;;;7.47;1.25;;;;;;;9.76;nan;100438.50;5053898;28;20036;-83
2023/10/22 07:15:00;;;;;;;7.82;1.10;;;;;;;9.89;nan;100444.31;5053297;28;20029;-83
2023/10/22 07:17:25;;;;;;;6.65;1.10;;;;;;;10.05;nan;100447.22;5051896;28;20053;-82
2023/10/22 07:19:51;;;;;;;4.60;1.10;;;;;;;10.28;nan;100452.16;5052667;28;20037;-83
2023/10/22 07:22:16;;;;;;;4.82;1.10;;;;;;;10.46;nan;100451.41;5053854;28;20044;-82
2023/10/22 07:24:42;;;;;;;5.68;1.10;;;;;;;10.57;nan;100460.03;5052477;28;20539;-82
2023/10/22 07:27:07;;;;;;;7.63;1.20;;;;;;;10.63;nan;100466.59;5053203;28;20071;-82
2023/10/22 07:29:32;;;;;;;4.80;1.45;;;;;;;10.65;nan;100464.63;5053654;28;20033;-83
2023/10/22 07:31:58;;;;;;;9.65;1.50;;;;;;;10.63;nan;100474.59;5053570;28;20029;-82
2023/10/22 07:34:23;;;;;;;3.17;1.30;;;;;;;10.69;nan;100475.78;5053863;28;20025;-83
2023/10/22 07:36:48;;;;;;;7.18;1.55;;;;;;;10.72;nan;100483.50;5053275;28;20116;-83
2023/10/22 07:39:14;;;;;;;7.72;1.90;;;;;;;10.76;nan;100483.06;5053465;28;20120;-83
2023/10/22 07:41:39;;;;;;;7.70;1.75;;;;;;;10.79;nan;100489.88;5053535;28;20115;-83
2023/10/22 07:44:04;;;;;;;5.30;1.83;;;;;;;10.78;nan;100493.53;5051757;28;20037;-83
2023/10/22 07:46:30;;;;;;;3.00;1.60;;;;;;;10.74;nan;100495.66;5053772;28;20029;-82
2023/10/22 07:48:55;;;;;;;9.23;2.22;;;;;;;10.74;nan;100497.47;5053280;28;20037;-82
2023/10/22 07:51:22;;;;;;;7.97;1.90;;;;;;;10.75;nan;100504.50;5051870;28;20474;-82
2023/10/22 07:53:47;;;;;;;7.10;2.00;;;;;;;10.71;nan;100503.09;5053145;28;20045;-83
2023/10/22 07:56:17;;;;;;;9.88;2.50;;;;;;;10.70;nan;100504.94;5053121;28;20039;-84
2023/10/22 07:58:42;;;;;;;7.80;2.40;;;;;;;10.67;nan;100512.34;5051886;28;20033;-82
2023/10/22 08:01:08;;;;;;;4.88;2.00;;;;;;;10.65;nan;100520.50;5052224;28;20048;-81
2023/10/22 08:03:34;;;;;;;9.32;2.30;;;;;;;10.63;nan;100521.63;5053242;28;20072;-83
2023/10/22 08:06:02;;;;;;;7.20;2.33;;;;;;;10.65;nan;100531.13;5052107;28;20040;-82
2023/10/22 08:08:28;;;;;;;11.40;2.53;;;;;;;10.65;nan;100527.66;5052863;28;20024;-75
2023/10/22 08:10:57;;;;;;;7.82;2.40;;;;;;;10.65;nan;100539.13;5052390;28;20417;-82
2023/10/22 08:13:23;;;;;;;5.88;2.28;;;;;;;10.67;nan;100538.97;5052770;28;20068;-82
2023/10/22 08:15:49;;;;;;;5.95;2.42;;;;;;;10.68;nan;100549.47;5052188;28;20471;-81
2023/10/22 08:18:15;;;;;;;6.55;2.65;;;;;;;10.70;nan;100546.66;5045472;28;20381;-81
2023/10/22 08:20:40;;;;;;;8.30;2.50;;;;;;;10.74;nan;100558.69;5014365;28;20107;-85
2023/10/22 08:23:05;;;;;;;7.40;2.63;;;;;;;10.72;nan;100548.19;5032320;28;20132;-85
2023/10/22 08:25:31;;;;;;;5.38;2.40;;;;;;;10.68;nan;100549.47;5032098;28;20085;-87
2023/10/22 08:27:56;;;;;;;10.43;2.30;;;;;;;10.65;nan;100554.25;5032412;28;20526;-85
2023/10/22 08:30:22;;;;;;;8.02;2.58;;;;;;;10.68;nan;100556.63;5032339;28;20034;-87
2023/10/22 08:32:47;;;;;;;3.95;2.40;;;;;;;10.85;nan;100554.97;5032020;28;20033;-85
2023/10/22 08:35:13;;;;;;;5.18;2.03;;;;;;;11.10;nan;100558.78;5014532;28;20030;-86
2023/10/22 08:37:39;;;;;;;7.88;2.42;;;;;;;11.32;nan;100560.19;5032401;28;20025;-83
2023/10/22 08:40:08;;;;;;;6.00;2.45;;;;;;;11.43;nan;100567.94;5032107;28;20453;-85
2023/10/22 08:42:35;;;;;;;8.73;2.25;;;;;;;11.51;nan;100575.19;5032447;28;20037;-86
2023/10/22 08:45:01;;;;;;;5.07;2.50;;;;;;;11.60;nan;100574.28;5032165;28;20030;-86
2023/10/22 08:47:28;;;;;;;5.90;2.60;;;;;;;11.74;nan;100574.75;5031658;28;20055;-86
2023/10/22 08:49:54;;;;;;;7.35;3.17;;;;;;;11.84;nan;100570.16;5031962;28;20139;-84
2023/10/22 08:52:20;;;;;;;5.28;2.30;;;;;;;12.10;nan;100574.72;5014892;28;20049;-84
2023/10/22 08:54:46;;;;;;;3.90;2.33;;;;;;;12.22;nan;100573.47;5031911;28;20378;-87
2023/10/22 08:57:11;;;;;;;6.95;2.10;;;;;;;12.25;nan;100578.47;5032438;28;20095;-86
2023/10/22 08:59:38;;;;;;;3.63;2.10;;;;;;;12.13;nan;100583.22;5032001;28;20497;-84
2023/10/22 09:02:08;;;;;;;4.38;2.10;;;;;;;11.96;nan;100584.94;5033915;28;20108;-82
2023/10/22 09:04:33;;;;;;;10.50;2.35;;;;;;;11.78;nan;100602.78;5038327;28;20085;-87
2023/10/22 09:06:59;;;;;;;5.38;2.22;;;;;;;11.59;nan;100598.41;5015693;28;20461;-84
2023/10/22 09:09:29;;;;;;;7.25;2.50;;;;;;;11.53;nan;100607.03;5014303;28;20037;-86
2023/10/22 09:11:56;;;;;;;4.93;2.30;;;;;;;11.57;nan;100609.22;5032539;28;20025;-86
2023/10/22 09:14:22;;;;;;;6.45;2.50;;;;;;;11.57;nan;100603.91;5015358;28;20052;-84
2023/10/22 09:16:49;;;;;;;5.40;2.30;;;;;;;11.57;nan;100613.69;5032069;28;20100;-86
2023/10/22 09:19:15;;;;;;;10.77;2.65;;;;;;;11.56;nan;100620.88;5035294;28;20064;-86
2023/10/22 09:21:44;;;;;;;7.47;2.28;;;;;;;11.48;nan;100610.13;5036828;28;20115;-89
2023/10/22 09:24:10;;;;;;;6.60;2.40;;;;;;;11.41;nan;100619.72;5018386;28;20044;-86
2023/10/22 09:26:41;;;;;;;4.53;2.00;;;;;;;11.32;nan;100617.94;5036426;28;20021;-89
2023/10/22 09:29:07;;;;;;;8.23;2.00;;;;;;;11.25;nan;100623.84;5035992;28;20072;-87
2023/10/22 09:31:33;;;;;;;6.20;1.90;;;;;;;11.23;nan;100633.81;5035563;28;20116;-87
2023/10/22 09:33:59;;;;;;;3.08;1.65;;;;;;;11.19;nan;100639.59;5036035;28;20044;-86
2023/10/22 09:36:25;;;;;;;5.45;2.25;;;;;;;11.15;nan;100639.06;5036129;28;20033;-88
2023/10/22 09:38:52;;;;;;;4.22;2.00;;;;;;;11.13;nan;100643.69;5035774;28;20059;-86
2023/10/22 09:41:23;;;;;;;4.20;1.60;;;;;;;11.11;nan;100649.16;5036096;28;20044;-84
2023/10/22 09:43:52;;;;;;;;;;;;;;;11.11;nan;100651.81;5036266;28;20047;-85
2023/10/22 09:46:21;;;;;;;4.47;1.73;;;;;;;11.21;nan;100651.78;5036190;28;19913;-83
2023/10/22 09:48:48;;;;;;;3.67;1.63;;;;;;;12.12;nan;100658.91;5035435;28;20088;-83
2023/10/22 09:51:15;;;;;;;11.85;1.67;;;;;;;13.23;nan;100642.25;5035672;28;20056;-83
2023/10/22 09:53:50;;;;;;;4.70;1.42;;;;;;;15.05;nan;100626.22;5035488;28;20045;-81
2023/10/22 09:56:19;;;;;;;4.28;1.33;;;;;;;15.92;nan;100610.00;5017903;28;20030;-81
2023/10/22 09:58:47;;;;;;;6.75;1.58;;;;;;;16.95;nan;100614.91;5034996;28;20120;-80
2023/10/22 10:01:14;;;;;;;5.93;1.98;;;;;;;17.58;nan;100616.06;5034930;28;20060;-79
2023/10/22 10:03:40;;;;;;;4.10;1.50;;;;;;;17.54;nan;100616.66;5034880;28;20036;-82
2023/10/22 10:06:08;;;;;;;4.10;1.48;;;;;;;17.12;nan;100619.06;5035103;28;20106;-82
2023/10/22 10:08:36;;;;;;;4.63;1.30;;;;;;;16.27;nan;100621.13;5035672;28;20057;-80
2023/10/22 10:11:04;;;;;;;5.85;1.48;;;;;;;15.51;nan;100631.72;5034936;28;20032;-82
2023/10/22 10:13:30;;;;;;;4.30;1.50;;;;;;;14.87;nan;100643.38;5035086;28;20069;-81
2023/10/22 10:15:59;;;;;;;4.00;1.08;;;;;;;14.43;nan;100646.44;5035640;28;20025;-85
2023/10/22 10:19:03;;;;;;;4.13;1.30;;;;;;;14.17;nan;100654.66;5035956;28;20144;-87
2023/10/22 10:21:34;;;;;;;4.15;1.80;;;;;;;13.92;nan;100651.97;5035648;28;20045;-88
2023/10/22 10:24:17;;;;;;;5.68;1.92;;;;;;;13.75;nan;100651.94;5038450;28;20037;-89
2023/10/22 10:26:44;;;;;;;2.92;1.20;;;;;;;13.68;nan;100658.94;5038043;28;20041;-87
2023/10/22 10:29:32;;;;;;;1.92;1.40;;;;;;;13.65;nan;100669.97;5038414;28;20037;-83
2023/10/22 10:32:13;;;;;;;4.82;1.70;;;;;;;13.63;nan;100669.31;5036141;28;20025;-82
2023/10/22 10:34:40;;;;;;;7.47;1.63;;;;;;;13.55;nan;100675.47;5018960;28;20415;-82
2023/10/22 10:37:14;;;;;;;4.13;1.40;;;;;;;13.47;nan;100670.09;5034943;28;20473;-84
2023/10/22 10:39:45;;;;;;;5.53;1.63;;;;;;;13.36;nan;100679.25;5035136;28;20032;-86
2023/10/22 10:42:31;;;;;;;5.63;1.30;;;;;;;13.25;nan;100686.66;5034418;28;20021;-82
2023/10/22 10:45:02;;;;;;;3.60;1.55;;;;;;;13.14;nan;100691.28;5017894;28;20033;-82
2023/10/22 10:47:33;;;;;;;;;;;;;;;13.00;nan;100692.75;5036372;28;20083;-83
2023/10/22 10:50:16;;;;;;;6.80;1.60;;;;;;;12.77;nan;100691.59;5034700;28;19909;-85
2023/10/22 10:52:47;;;;;;;7.10;1.42;;;;;;;12.60;nan;100694.16;5034488;28;20025;-87
2023/10/22 10:55:16;;;;;;;7.78;1.60;;;;;;;12.52;nan;100697.59;5034606;28;20040;-84
2023/10/22 10:57:51;;;;;;;3.67;1.50;;;;;;;12.53;nan;100698.44;5033792;28;20347;-83
2023/10/22 11:00:30;;;;;;;3.58;1.48;;;;;;;12.55;nan;100693.75;5034420;28;20037;-82
2023/10/22 11:03:04;;;;;;;7.90;1.60;;;;;;;12.56;nan;100702.63;5034332;28;20057;-82
2023/10/22 11:05:37;;;;;;;4.28;1.73;;;;;;;12.59;nan;100695.13;5034259;28;20132;-84
2023/10/22 11:08:11;;;;;;;5.53;1.65;;;;;;;12.70;nan;100692.22;5034242;28;20037;-82
2023/10/22 11:10:36;;;;;;;4.15;1.35;;;;;;;12.79;nan;100705.59;5035296;28;20033;-82
2023/10/22 11:13:06;;;;;;;5.00;1.55;;;;;;;12.81;nan;100685.78;5034819;28;20119;-86
2023/10/22 11:15:33;;;;;;;4.85;1.73;;;;;;;13.05;nan;100701.09;5035734;28;20085;-83
2023/10/22 11:18:17;;;;;;;3.35;1.02;;;;;;;13.44;nan;100691.78;5021234;28;20531;-83
2023/10/22 11:20:42;;;;;;;0.93;0.90;;;;;;;13.70;nan;100694.41;5054611;28;20047;-84
2023/10/22 11:23:17;;;;;;;4.45;1.17;;;;;;;13.92;nan;100690.25;5052678;28;20115;-83
2023/10/22 11:25:43;;;;;;;5.60;1.00;;;;;;;14.18;nan;100704.47;5053451;28;20052;-83
2023/10/22 11:28:08;;;;;;;4.78;1.30;;;;;;;14.32;nan;100705.69;5054264;28;20037;-84
2023/10/22 11:30:34;;;;;;;3.83;1.25;;;;;;;14.13;nan;100706.84;5053445;28;20063;-85
2023/10/22 11:32:59;;;;;;;2.75;1.10;;;;;;;13.88;nan;100709.44;5053505;28;20079;-83
2023/10/22 11:35:30;;;;;;;4.25;1.23;;;;;;;13.74;nan;100714.44;5054304;28;20116;-85
2023/10/22 11:37:57;;;;;;;5.18;0.95;;;;;;;13.64;nan;100713.72;5053341;28;20057;-85
2023/10/22 11:40:28;;;;;;;1.77;0.93;;;;;;;13.58;nan;100714.38;5052567;28;20098;-86
2023/10/22 11:43:00;;;;;;;3.28;1.15;;;;;;;13.68;nan;100716.94;5054344;28;20125;-83